Time;durP1;ratioP1;P1;durP2;ratioP2;P2;SDS_P1;SDS_P2;PMS_P1;PMS_P2;Temp;Humidity;BMP_temperature;BMP_pressure;BME280_temperature;BME280_humidity;BME280_pressure;Samples;Min_cycle;Max_cycle;Signal;HPM_P1;HPM_P2
2022/06/02 00:01:04;;;;;;;;;;;10.40;99.90;;;;;;5053403;28;19924;-81
2022/06/02 00:03:39;;;;;;;;;;;10.40;99.90;;;;;;5052303;28;20022;-80
2022/06/02 00:06:13;;;;;;;;;;;10.40;99.90;;;;;;5070925;28;19979;-80
2022/06/02 00:08:39;;;;;;;;;;;10.40;99.90;;;;;;5052957;28;19920;-82
2022/06/02 00:11:17;;;;;;;;;;;10.40;99.90;;;;;;5086323;28;19920;-80
2022/06/02 00:13:42;;;;;;;;;;;10.40;99.90;;;;;;5052714;28;20397;-81
2022/06/02 00:16:17;;;;;;;;;;;10.30;99.90;;;;;;5052702;28;19924;-80
2022/06/02 00:18:50;;;;;;;;;;;10.30;99.90;;;;;;5069761;28;19928;-80
2022/06/02 00:21:25;;;;;;;;;;;10.20;99.90;;;;;;5052112;28;19927;-81
2022/06/02 00:23:57;;;;;;;;;;;10.20;99.90;;;;;;5085942;28;20345;-81
2022/06/02 00:26:45;;;;;;;;;;;10.10;99.90;;;;;;5052436;28;19965;-81
2022/06/02 00:29:17;;;;;;;;;;;10.10;99.90;;;;;;5058212;28;19924;-81
2022/06/02 00:31:45;;;;;;;;;;;10.10;99.90;;;;;;5070303;28;19999;-81
2022/06/02 00:34:17;;;;;;;;;;;10.10;99.90;;;;;;5052323;28;19920;-81
2022/06/02 00:37:02;;;;;;;;;;;10.10;99.90;;;;;;5070449;28;19944;-81
2022/06/02 00:39:30;;;;;;;;;;;10.00;99.90;;;;;;5063540;28;19921;-81
2022/06/02 00:42:17;;;;;;;;;;;10.00;99.90;;;;;;5070344;28;20366;-81
2022/06/02 00:44:48;;;;;;;;;;;10.00;99.90;;;;;;5070161;28;19920;-81
2022/06/02 00:47:28;;;;;;;;;;;9.90;99.90;;;;;;5070034;28;20025;-81
2022/06/02 00:49:56;;;;;;;;;;;9.90;99.90;;;;;;5052194;28;19925;-81
2022/06/02 00:52:27;;;;;;;;;;;9.90;99.90;;;;;;5085441;28;19979;-81
2022/06/02 00:57:56;;;;;;;;;;;9.80;99.90;;;;;;5085667;28;19920;-81
2022/06/02 01:00:28;;;;;;;;;;;9.80;99.90;;;;;;5070129;28;19920;-81
2022/06/02 01:02:56;;;;;;;;;;;9.70;99.90;;;;;;5069562;28;19924;-81
2022/06/02 01:05:28;;;;;;;;;;;9.70;99.90;;;;;;5052168;28;19920;-81
2022/06/02 01:07:54;;;;;;;;;;;9.70;99.90;;;;;;5052066;28;20011;-81
2022/06/02 01:10:24;;;;;;;;;;;9.70;99.90;;;;;;5085482;28;20437;-81
2022/06/02 01:12:52;;;;;;;;;;;9.60;99.90;;;;;;5055420;28;20346;-81
2022/06/02 01:15:34;;;;;;;;;;;9.60;99.90;;;;;;5068998;28;20408;-81
2022/06/02 01:18:05;;;;;;;;;;;9.60;99.90;;;;;;5085077;28;19920;-81
2022/06/02 01:20:51;;;;;;;;;;;9.60;99.90;;;;;;5051678;28;20405;-81
2022/06/02 01:23:26;;;;;;;;;;;9.60;99.90;;;;;;5051900;28;19920;-80
2022/06/02 01:26:10;;;;;;;;;;;9.60;99.90;;;;;;5084701;28;20408;-81
2022/06/02 01:28:45;;;;;;;;;;;9.50;99.90;;;;;;5085565;28;19955;-81
2022/06/02 01:31:24;;;;;;;;;;;9.60;99.90;;;;;;5069860;28;19924;-81
2022/06/02 01:34:08;;;;;;;;;;;9.50;99.90;;;;;;5069529;28;20365;-81
2022/06/02 01:36:41;;;;;;;;;;;9.50;99.90;;;;;;5084896;28;20373;-81
2022/06/02 01:39:09;;;;;;;;;;;9.50;99.90;;;;;;5069247;28;19946;-81
2022/06/02 01:41:38;;;;;;;;;;;9.50;99.90;;;;;;5069407;28;20637;-81
2022/06/02 01:44:03;;;;;;;;;;;9.40;99.90;;;;;;5064190;28;19928;-81
2022/06/02 01:46:41;;;;;;;;;;;9.40;99.90;;;;;;5059253;28;19927;-81
2022/06/02 01:49:21;;;;;;;;;;;9.40;99.90;;;;;;5051607;28;19920;-81
2022/06/02 01:51:52;;;;;;;;;;;9.40;99.90;;;;;;5085073;28;20011;-81
2022/06/02 01:54:17;;;;;;;;;;;9.30;99.90;;;;;;5084853;28;19931;-80
2022/06/02 01:56:56;;;;;;;;;;;9.40;99.90;;;;;;5057930;28;19924;-81
2022/06/02 01:59:22;;;;;;;;;;;9.30;99.90;;;;;;5049232;28;19920;-81
2022/06/02 02:01:47;;;;;;;;;;;9.30;99.90;;;;;;5064421;28;19920;-81
2022/06/02 02:04:27;;;;;;;;;;;9.30;99.90;;;;;;5050323;28;19924;-81
2022/06/02 02:07:13;;;;;;;;;;;9.30;99.90;;;;;;5040535;28;19920;-81
2022/06/02 02:09:54;;;;;;;;;;;9.20;99.90;;;;;;5033056;28;19927;-81
2022/06/02 02:12:40;;;;;;;;;;;9.20;99.90;;;;;;5050413;28;19925;-81
2022/06/02 02:15:10;;;;;;;;;;;9.20;99.90;;;;;;5042291;28;19971;-81
2022/06/02 02:17:35;;;;;;;;;;;9.20;99.90;;;;;;5060925;28;19924;-80
2022/06/02 02:20:07;;;;;;;;;;;9.10;99.90;;;;;;5069185;28;19921;-81
2022/06/02 02:22:38;;;;;;;;;;;9.10;99.90;;;;;;5076382;28;19921;-80
2022/06/02 02:25:06;;;;;;;;;;;9.00;99.90;;;;;;5069281;28;19921;-81
2022/06/02 02:28:02;;;;;;;;;;;9.00;99.90;;;;;;5071808;28;19963;-81
2022/06/02 02:30:46;;;;;;;;;;;9.00;99.90;;;;;;5072101;28;19982;-81
2022/06/02 02:33:30;;;;;;;;;;;9.00;99.90;;;;;;5076315;28;20286;-81
2022/06/02 02:36:02;;;;;;;;;;;9.00;99.90;;;;;;5054700;28;19920;-81
2022/06/02 02:38:48;;;;;;;;;;;9.00;99.90;;;;;;5083294;28;19921;-82
2022/06/02 02:41:33;;;;;;;;;;;9.00;99.90;;;;;;5047642;28;19925;-81
2022/06/02 02:44:11;;;;;;;;;;;9.00;99.90;;;;;;5046885;28;19942;-81
2022/06/02 02:46:42;;;;;;;;;;;9.00;99.90;;;;;;5054279;28;19924;-81
2022/06/02 02:49:21;;;;;;;;;;;9.00;99.90;;;;;;5087497;28;19920;-81
2022/06/02 02:51:54;;;;;;;;;;;8.90;99.90;;;;;;5053769;28;19974;-81
2022/06/02 02:54:29;;;;;;;;;;;8.90;99.90;;;;;;5087300;28;19927;-81
2022/06/02 02:57:07;;;;;;;;;;;8.90;99.90;;;;;;5053568;28;19936;-81
2022/06/02 02:59:36;;;;;;;;;;;8.90;99.90;;;;;;5053910;28;19986;-82
2022/06/02 03:02:13;;;;;;;;;;;8.90;99.90;;;;;;5087552;28;19935;-81
2022/06/02 03:04:57;;;;;;;;;;;8.90;99.90;;;;;;5071781;28;20015;-81
2022/06/02 03:07:23;;;;;;;;;;;8.90;99.90;;;;;;5086704;28;19928;-81
2022/06/02 03:09:58;;;;;;;;;;;8.80;99.90;;;;;;5054118;28;19925;-82
2022/06/02 03:12:30;;;;;;;;;;;8.90;99.90;;;;;;5070782;28;19924;-81
2022/06/02 03:14:55;;;;;;;;;;;8.90;99.90;;;;;;5087560;28;20439;-81
2022/06/02 03:17:39;;;;;;;;;;;8.90;99.90;;;;;;5071818;28;19970;-81
2022/06/02 03:20:17;;;;;;;;;;;8.80;99.90;;;;;;5087208;28;20582;-81
2022/06/02 03:22:52;;;;;;;;;;;8.80;99.90;;;;;;5065523;28;19924;-81
2022/06/02 03:25:23;;;;;;;;;;;8.80;99.90;;;;;;5070026;28;19924;-81
2022/06/02 03:28:07;;;;;;;;;;;8.80;99.90;;;;;;5053542;28;19981;-81
2022/06/02 03:30:47;;;;;;;;;;;8.80;99.90;;;;;;5078806;28;19921;-81
2022/06/02 03:33:13;;;;;;;;;;;8.80;99.90;;;;;;5040866;28;19928;-81
2022/06/02 03:35:57;;;;;;;;;;;8.80;99.90;;;;;;5087638;28;20143;-81
2022/06/02 03:38:38;;;;;;;;;;;8.80;99.90;;;;;;5057015;28;19921;-81
2022/06/02 03:41:16;;;;;;;;;;;8.80;99.90;;;;;;5055942;28;20012;-81
2022/06/02 03:43:54;;;;;;;;;;;8.70;99.90;;;;;;5087064;28;19920;-81
2022/06/02 03:46:29;;;;;;;;;;;8.70;99.90;;;;;;5072399;28;20003;-81
2022/06/02 03:48:57;;;;;;;;;;;8.70;99.90;;;;;;5059460;28;20286;-81
2022/06/02 03:51:35;;;;;;;;;;;8.70;99.90;;;;;;5050081;28;19966;-81
2022/06/02 03:54:27;;;;;;;;;;;8.70;99.90;;;;;;5086621;28;19920;-81
2022/06/02 03:57:05;;;;;;;;;;;8.80;99.90;;;;;;5035185;28;19927;-80
2022/06/02 03:59:49;;;;;;;;;;;8.80;99.90;;;;;;5071187;28;19986;-81
2022/06/02 04:02:18;;;;;;;;;;;8.90;99.90;;;;;;5073714;28;19928;-81
2022/06/02 04:04:56;;;;;;;;;;;9.00;99.90;;;;;;5053099;28;19924;-81
2022/06/02 04:07:24;;;;;;;;;;;9.00;99.90;;;;;;5049593;28;19921;-81
2022/06/02 04:09:56;;;;;;;;;;;9.10;99.90;;;;;;5049959;28;19928;-81
2022/06/02 04:15:23;;;;;;;;;;;9.30;99.90;;;;;;5086461;28;20553;-81
2022/06/02 04:17:55;;;;;;;;;;;9.30;99.90;;;;;;5086214;28;19927;-82
2022/06/02 04:20:47;;;;;;;;;;;9.40;99.90;;;;;;5086727;28;19920;-81
2022/06/02 04:23:31;;;;;;;;;;;9.50;99.90;;;;;;5068205;28;19921;-81
2022/06/02 04:26:06;;;;;;;;;;;9.50;99.90;;;;;;5072232;28;20036;-81
2022/06/02 04:28:32;;;;;;;;;;;9.60;99.90;;;;;;5086053;28;20543;-81
2022/06/02 04:31:08;;;;;;;;;;;9.60;99.90;;;;;;5084373;28;20009;-81
2022/06/02 04:33:35;;;;;;;;;;;9.60;99.90;;;;;;5070367;28;19920;-80
2022/06/02 04:36:10;;;;;;;;;;;9.60;99.90;;;;;;5085292;28;20377;-81
2022/06/02 04:38:51;;;;;;;;;;;9.60;99.90;;;;;;5052521;28;19920;-81
2022/06/02 04:41:49;;;;;;;;;;;9.70;99.90;;;;;;5052177;28;19927;-81
2022/06/02 04:44:20;;;;;;;;;;;9.80;99.90;;;;;;5063349;28;19929;-81
2022/06/02 04:47:04;;;;;;;;;;;9.90;99.90;;;;;;5070345;28;20369;-81
2022/06/02 04:49:40;;;;;;;;;;;10.00;99.90;;;;;;5068908;28;19920;-81
2022/06/02 04:52:11;;;;;;;;;;;10.00;99.90;;;;;;5069872;28;19967;-81
2022/06/02 04:54:43;;;;;;;;;;;10.20;99.90;;;;;;5063705;28;20383;-81
2022/06/02 04:57:17;;;;;;;;;;;10.20;99.90;;;;;;5052020;28;19943;-80
2022/06/02 04:59:51;;;;;;;;;;;10.20;99.90;;;;;;5068560;28;20351;-81
2022/06/02 05:02:21;;;;;;;;;;;10.20;99.90;;;;;;5051954;28;19921;-81
2022/06/02 05:04:58;;;;;;;;;;;10.30;99.90;;;;;;5051696;28;19920;-81
2022/06/02 05:07:42;;;;;;;;;;;10.30;99.90;;;;;;5085724;28;19973;-81
2022/06/02 05:10:14;;;;;;;;;;;10.40;99.90;;;;;;5051880;28;19920;-81
2022/06/02 05:13:00;;;;;;;;;;;10.40;99.90;;;;;;5085282;28;19956;-81
2022/06/02 05:15:44;;;;;;;;;;;10.40;99.90;;;;;;5031328;28;20355;-81
2022/06/02 05:18:10;;;;;;;;;;;10.50;99.90;;;;;;5085393;28;20033;-80
2022/06/02 05:20:54;;;;;;;;;;;10.50;99.90;;;;;;5051644;28;19934;-81
2022/06/02 05:23:55;;;;;;;;;;;10.60;99.90;;;;;;5051867;28;19921;-81
2022/06/02 05:26:32;;;;;;;;;;;10.60;99.90;;;;;;5010476;28;20375;-80
2022/06/02 05:28:58;;;;;;;;;;;10.80;99.90;;;;;;5062554;28;19931;-81
2022/06/02 05:31:30;;;;;;;;;;;10.80;99.90;;;;;;5051343;28;20301;-81
2022/06/02 05:33:59;;;;;;;;;;;10.80;99.90;;;;;;5051607;28;19924;-81
2022/06/02 05:36:39;;;;;;;;;;;10.90;99.90;;;;;;5069431;28;19924;-81
2022/06/02 05:39:28;;;;;;;;;;;11.00;99.90;;;;;;5051476;28;20455;-81
2022/06/02 05:41:55;;;;;;;;;;;11.10;99.90;;;;;;5038176;28;19925;-81
2022/06/02 05:44:21;;;;;;;;;;;11.20;99.90;;;;;;5048793;28;19921;-81
2022/06/02 05:46:52;;;;;;;;;;;11.20;99.90;;;;;;5050739;28;19920;-80
2022/06/02 05:49:30;;;;;;;;;;;11.30;99.90;;;;;;5051320;28;19999;-78
2022/06/02 05:52:13;;;;;;;;;;;11.30;99.90;;;;;;5065240;28;19928;-80
2022/06/02 05:54:43;;;;;;;;;;;11.40;99.90;;;;;;5068329;28;19920;-81
2022/06/02 05:57:22;;;;;;;;;;;11.50;99.90;;;;;;5075112;28;20297;-81
2022/06/02 05:59:57;;;;;;;;;;;11.60;99.90;;;;;;5053569;28;20007;-80
2022/06/02 06:02:41;;;;;;;;;;;11.70;99.90;;;;;;5082152;28;19920;-80
2022/06/02 06:05:13;;;;;;;;;;;11.70;99.90;;;;;;5074393;28;20305;-80
2022/06/02 06:07:42;;;;;;;;;;;11.80;99.90;;;;;;5087352;28;19920;-80
2022/06/02 06:10:07;;;;;;;;;;;11.90;99.90;;;;;;5100020;28;19928;-80
2022/06/02 06:12:52;;;;;;;;;;;12.00;99.90;;;;;;5071100;28;19924;-81
2022/06/02 06:15:28;;;;;;;;;;;12.00;99.90;;;;;;5087873;28;19958;-80
2022/06/02 06:17:57;;;;;;;;;;;12.10;99.90;;;;;;5072274;28;19924;-80
2022/06/02 06:20:39;;;;;;;;;;;12.10;99.90;;;;;;5050031;28;19995;-81
2022/06/02 06:23:24;;;;;;;;;;;12.20;99.90;;;;;;5044230;28;19927;-80
2022/06/02 06:25:50;;;;;;;;;;;12.30;99.90;;;;;;5043757;28;20003;-80
2022/06/02 06:28:17;;;;;;;;;;;12.40;99.90;;;;;;5071649;28;20079;-80
2022/06/02 06:31:01;;;;;;;;;;;12.40;99.90;;;;;;5057447;28;19928;-80
2022/06/02 06:33:53;;;;;;;;;;;12.50;99.90;;;;;;5063763;28;19920;-80
2022/06/02 06:36:38;;;;;;;;;;;12.60;99.90;;;;;;5062027;28;20357;-80
2022/06/02 06:39:03;;;;;;;;;;;12.60;99.90;;;;;;5100787;28;19927;-80
2022/06/02 06:41:32;;;;;;;;;;;12.70;99.90;;;;;;5079918;28;19924;-79
2022/06/02 06:44:00;;;;;;;;;;;12.70;99.90;;;;;;5054278;28;20431;-79
2022/06/02 06:46:29;;;;;;;;;;;12.80;99.90;;;;;;5053707;28;20390;-79
2022/06/02 06:49:14;;;;;;;;;;;12.80;99.90;;;;;;5065390;28;19952;-80
2022/06/02 06:51:49;;;;;;;;;;;12.90;99.90;;;;;;5070187;28;20041;-80
2022/06/02 06:54:34;;;;;;;;;;;13.00;99.90;;;;;;5069030;28;19920;-80
2022/06/02 06:57:10;;;;;;;;;;;13.20;99.90;;;;;;5074925;28;19968;-79
2022/06/02 06:59:54;;;;;;;;;;;13.30;99.90;;;;;;5081953;28;19931;-80
2022/06/02 07:02:20;;;;;;;;;;;13.40;99.90;;;;;;5052388;28;19921;-80
2022/06/02 07:05:16;;;;;;;;;;;13.50;99.90;;;;;;5061624;28;19928;-80
2022/06/02 07:07:51;;;;;;;;;;;13.60;99.90;;;;;;5047472;28;20271;-80
2022/06/02 07:10:22;;;;;;;;;;;13.60;99.90;;;;;;5054364;28;20331;-80
2022/06/02 07:12:53;;;;;;;;;;;13.60;99.90;;;;;;5055233;28;19972;-80
2022/06/02 07:15:46;;;;;;;;;;;13.70;99.90;;;;;;5054253;28;20393;-80
2022/06/02 07:18:15;;;;;;;;;;;13.70;99.90;;;;;;5049108;28;19920;-80
2022/06/02 07:20:59;;;;;;;;;;;13.80;99.90;;;;;;5042278;28;19951;-80
2022/06/02 07:23:33;;;;;;;;;;;13.90;99.90;;;;;;5053779;28;19978;-80
2022/06/02 07:26:05;;;;;;;;;;;13.90;99.90;;;;;;5087309;28;19924;-80
2022/06/02 07:28:42;;;;;;;;;;;13.90;99.90;;;;;;5053568;28;20340;-80
2022/06/02 07:31:20;;;;;;;;;;;13.80;99.90;;;;;;5061843;28;20401;-81
2022/06/02 07:33:52;;;;;;;;;;;13.90;99.90;;;;;;5088964;28;19931;-80
2022/06/02 07:36:34;;;;;;;;;;;13.90;99.90;;;;;;5073647;28;19919;-77
2022/06/02 07:39:18;;;;;;;;;;;13.90;99.90;;;;;;5071673;28;19996;-78
2022/06/02 07:41:47;;;;;;;;;;;14.00;99.90;;;;;;5070302;28;19920;-76
2022/06/02 07:44:24;;;;;;;;;;;14.10;99.90;;;;;;5056758;28;19920;-77
2022/06/02 07:46:49;;;;;;;;;;;14.10;99.90;;;;;;5086753;28;19919;-77
2022/06/02 07:49:24;;;;;;;;;;;14.10;99.90;;;;;;5057073;28;20066;-79
2022/06/02 07:51:55;;;;;;;;;;;14.10;99.90;;;;;;5069018;28;19986;-79
2022/06/02 07:54:40;;;;;;;;;;;14.20;99.90;;;;;;5056040;28;19920;-79
2022/06/02 07:57:18;;;;;;;;;;;14.20;99.90;;;;;;5033178;28;20457;-80
2022/06/02 07:59:58;;;;;;;;;;;14.20;99.90;;;;;;5058296;28;19920;-80
2022/06/02 08:02:38;;;;;;;;;;;14.20;99.90;;;;;;5069966;28;19932;-80
2022/06/02 08:05:23;;;;;;;;;;;14.30;99.90;;;;;;5053350;28;20294;-80
2022/06/02 08:07:53;;;;;;;;;;;14.40;99.90;;;;;;5066074;28;19921;-80
2022/06/02 08:10:33;;;;;;;;;;;14.50;99.90;;;;;;5095992;28;19920;-80
2022/06/02 08:13:02;;;;;;;;;;;14.60;99.90;;;;;;5084792;28;19920;-80
2022/06/02 08:15:38;;;;;;;;;;;14.60;99.90;;;;;;5069661;28;19947;-80
2022/06/02 08:18:10;;;;;;;;;;;14.60;99.90;;;;;;5069525;28;19932;-79
2022/06/02 08:20:46;;;;;;;;;;;14.60;99.90;;;;;;5074507;28;19983;-80
2022/06/02 08:23:14;;;;;;;;;;;14.70;99.90;;;;;;5061155;28;19924;-80
2022/06/02 08:25:57;;;;;;;;;;;14.70;99.90;;;;;;5051495;28;19956;-80
2022/06/02 08:28:25;;;;;;;;;;;14.70;99.90;;;;;;5034131;28;19956;-80
2022/06/02 08:30:56;;;;;;;;;;;14.90;99.90;;;;;;5056778;28;19920;-80
2022/06/02 08:33:29;;;;;;;;;;;14.90;99.90;;;;;;5070988;28;19923;-78
2022/06/02 08:35:55;;;;;;;;;;;14.90;99.90;;;;;;5069205;28;19966;-77
2022/06/02 08:38:46;;;;;;;;;;;14.90;99.90;;;;;;5051635;28;19920;-77
2022/06/02 08:41:31;;;;;;;;;;;15.00;99.90;;;;;;5052025;28;19927;-78
2022/06/02 08:44:15;;;;;;;;;;;15.00;99.90;;;;;;5065637;28;20394;-77
2022/06/02 08:46:44;;;;;;;;;;;15.20;99.90;;;;;;5074098;28;19927;-77
2022/06/02 08:49:22;;;;;;;;;;;15.40;99.90;;;;;;5079848;28;19920;-77
2022/06/02 08:52:21;;;;;;;;;;;15.50;99.90;;;;;;5052068;28;19928;-77
2022/06/02 08:55:05;;;;;;;;;;;15.60;99.90;;;;;;5058365;28;19955;-77
2022/06/02 08:57:37;;;;;;;;;;;15.70;99.90;;;;;;5058984;28;19924;-76
2022/06/02 09:00:18;;;;;;;;;;;15.70;99.90;;;;;;5079659;28;20014;-76
2022/06/02 09:03:02;;;;;;;;;;;15.70;99.90;;;;;;5052384;28;20338;-77
2022/06/02 09:05:49;;;;;;;;;;;15.80;99.90;;;;;;5069892;28;19946;-77
2022/06/02 09:08:26;;;;;;;;;;;15.70;99.90;;;;;;5048268;28;19973;-77
2022/06/02 09:11:10;;;;;;;;;;;15.70;99.90;;;;;;5055774;28;19920;-77
2022/06/02 09:13:39;;;;;;;;;;;15.70;99.90;;;;;;5051969;28;19967;-77
2022/06/02 09:16:16;;;;;;;;;;;15.70;99.90;;;;;;5091730;28;20437;-78
2022/06/02 09:19:00;;;;;;;;;;;15.90;99.90;;;;;;5057005;28;20290;-77
2022/06/02 09:21:29;;;;;;;;;;;16.00;99.90;;;;;;5087887;28;19920;-77
2022/06/02 09:24:13;;;;;;;;;;;16.20;99.90;;;;;;5050443;28;19920;-77
2022/06/02 09:27:01;;;;;;;;;;;16.40;99.90;;;;;;5083959;28;19924;-77
2022/06/02 09:29:27;;;;;;;;;;;16.60;99.90;;;;;;5055320;28;19931;-78
2022/06/02 09:32:10;;;;;;;;;;;16.80;99.90;;;;;;5051677;28;19920;-78
2022/06/02 09:34:48;;;;;;;3.40;0.50;;;16.80;99.90;;;;;;5049476;28;19924;-78
2022/06/02 09:37:51;;;;;;;3.22;0.82;;;17.00;99.90;;;;;;5052386;28;20446;-78
2022/06/02 09:40:32;;;;;;;2.78;0.68;;;17.30;99.90;;;;;;5053073;28;20415;-78
2022/06/02 09:43:16;;;;;;;2.65;0.80;;;17.60;99.90;;;;;;5053241;28;20422;-78
2022/06/02 09:45:54;;;;;;;2.45;0.50;;;17.80;99.90;;;;;;5058476;28;20438;-78
2022/06/02 09:48:26;;;;;;;2.67;0.60;;;17.80;99.90;;;;;;5052541;28;20472;-78
2022/06/02 09:51:36;;;;;;;2.50;0.50;;;17.80;99.90;;;;;;5052158;28;20920;-78
2022/06/02 09:54:32;;;;;;;2.25;0.60;;;18.20;99.90;;;;;;5044869;28;20500;-78
2022/06/02 10:00:22;;;;;;;3.63;0.60;;;18.00;99.90;;;;;;5050536;28;20912;-78
2022/06/02 10:03:10;;;;;;;2.88;0.70;;;17.80;99.90;;;;;;5058620;28;20427;-78
2022/06/02 10:06:10;;;;;;;2.65;0.68;;;17.80;99.90;;;;;;5065523;28;20414;-77
2022/06/02 10:09:06;;;;;;;2.65;0.85;;;18.30;99.90;;;;;;5048689;28;20431;-78
2022/06/02 10:11:31;;;;;;;2.97;0.60;;;18.60;99.90;;;;;;5041642;28;20905;-77
2022/06/02 10:14:10;;;;;;;2.33;0.50;;;18.60;98.30;;;;;;5069379;28;20432;-78
2022/06/02 10:16:52;;;;;;;3.20;0.60;;;18.40;99.20;;;;;;5078371;28;20431;-78
2022/06/02 10:20:04;;;;;;;1.98;0.60;;;18.20;99.40;;;;;;5059063;28;20433;-78
2022/06/02 10:22:53;;;;;;;2.70;0.60;;;18.10;99.80;;;;;;5044877;28;21152;-77
2022/06/02 10:25:57;;;;;;;2.45;0.60;;;18.10;99.70;;;;;;5061157;28;20435;-78
2022/06/02 10:28:45;;;;;;;3.85;0.70;;;18.20;99.90;;;;;;5050133;28;20510;-78
2022/06/02 10:31:34;;;;;;;2.67;0.50;;;18.50;99.90;;;;;;5069464;28;20426;-78
2022/06/02 10:34:02;;;;;;;3.50;0.60;;;18.80;99.80;;;;;;5047552;28;20487;-77
2022/06/02 10:36:28;;;;;;;3.45;0.70;;;19.10;99.40;;;;;;5053164;28;20406;-78
2022/06/02 10:38:56;;;;;;;2.80;0.60;;;19.00;97.80;;;;;;5060756;28;20433;-78
2022/06/02 10:41:55;;;;;;;3.17;0.65;;;19.00;97.90;;;;;;5069397;28;20472;-80
2022/06/02 10:44:27;;;;;;;;;;;19.20;98.00;;;;;;5077194;28;20044;-80
2022/06/02 10:47:11;;;;;;;;;;;19.10;97.60;;;;;;5061725;28;20011;-79
2022/06/02 10:49:38;;;;;;;;;;;18.90;97.50;;;;;;5089172;28;20007;-79
2022/06/02 10:52:19;;;;;;;;;;;18.70;99.00;;;;;;5063646;28;19973;-78
2022/06/02 10:55:03;;;;;;;;;;;18.70;98.10;;;;;;5054327;28;19920;-78
2022/06/02 10:57:41;;;;;;;;;;;18.80;98.50;;;;;;5099002;28;19999;-78
2022/06/02 11:00:14;;;;;;;;;;;18.80;97.60;;;;;;5070793;28;20216;-80
2022/06/02 11:02:44;;;;;;;;;;;18.80;97.70;;;;;;5099992;28;19928;-79
2022/06/02 11:05:15;;;;;;;;;;;19.00;97.80;;;;;;5088051;28;19924;-79
2022/06/02 11:08:00;;;;;;;;;;;18.90;97.00;;;;;;5086514;28;20496;-78
2022/06/02 11:10:25;;;;;;;;;;;18.80;97.20;;;;;;5086574;28;19932;-79
2022/06/02 11:13:00;;;;;;;;;;;18.70;97.90;;;;;;5053802;28;19924;-79
2022/06/02 11:15:44;;;;;;;;;;;18.70;98.20;;;;;;5053138;28;19931;-79
2022/06/02 11:18:28;;;;;;;;;;;18.70;97.50;;;;;;5084807;28;19970;-79
2022/06/02 11:20:54;;;;;;;;;;;18.70;97.60;;;;;;5087283;28;19925;-79
2022/06/02 11:23:28;;;;;;;;;;;18.70;97.40;;;;;;5071679;28;19925;-79
2022/06/02 11:26:31;;;;;;;2.42;0.68;;;18.80;97.70;;;;;;5053077;28;19932;-79
2022/06/02 11:29:16;;;;;;;;;;;19.20;97.90;;;;;;5052558;28;20501;-79
2022/06/02 11:31:56;;;;;;;;;;;19.50;97.30;;;;;;5053220;28;19921;-79
2022/06/02 11:34:40;;;;;;;;;;;19.80;97.40;;;;;;5071569;28;19927;-79
2022/06/02 11:37:17;;;;;;;;;;;20.00;96.90;;;;;;5046359;28;19924;-79
2022/06/02 11:39:53;;;;;;;;;;;20.00;96.90;;;;;;5056358;28;19958;-79
2022/06/02 11:42:37;;;;;;;;;;;19.80;96.00;;;;;;5086110;28;19931;-79
2022/06/02 11:45:06;;;;;;;;;;;19.30;95.80;;;;;;5086584;28;19949;-79
2022/06/02 11:47:48;;;;;;;;;;;19.10;96.50;;;;;;5070262;28;19950;-79
2022/06/02 11:50:29;;;;;;;;;;;19.30;97.40;;;;;;5071449;28;20289;-80
2022/06/02 11:53:17;;;;;;;;;;;19.60;96.20;;;;;;5053502;28;19972;-77
2022/06/02 11:55:47;;;;;;;;;;;19.60;95.00;;;;;;5068663;28;19921;-77
2022/06/02 11:58:12;;;;;;;;;;;19.70;95.80;;;;;;5086473;28;19924;-77
2022/06/02 12:00:45;;;;;;;;;;;19.90;95.50;;;;;;5051702;28;19924;-78
2022/06/02 12:03:22;;;;;;;;;;;20.10;95.30;;;;;;5086640;28;20412;-79
2022/06/02 12:06:06;;;;;;;;;;;20.40;94.90;;;;;;5070744;28;19927;-79
2022/06/02 12:08:44;;;;;;;;;;;20.70;94.40;;;;;;5069583;28;20382;-79
2022/06/02 12:11:19;;;;;;;;;;;20.50;93.80;;;;;;5049822;28;20333;-80
2022/06/02 12:13:52;;;;;;;;;;;20.50;93.80;;;;;;5051451;28;19932;-79
2022/06/02 12:16:21;;;;;;;;;;;20.30;93.20;;;;;;5074360;28;20007;-79
2022/06/02 12:19:06;;;;;;;;;;;20.10;93.80;;;;;;5073838;28;19932;-79
2022/06/02 12:21:37;;;;;;;;;;;20.40;94.90;;;;;;5072317;28;19920;-80
2022/06/02 12:24:22;;;;;;;;;;;21.00;94.70;;;;;;5071911;28;19943;-79
2022/06/02 12:27:06;;;;;;;;;;;21.40;93.40;;;;;;5076415;28;20715;-79
2022/06/02 12:29:58;;;;;;;;;;;21.50;92.70;;;;;;5070471;28;20010;-80
2022/06/02 12:32:32;;;;;;;;;;;21.80;92.20;;;;;;5032013;28;19928;-79
2022/06/02 12:35:04;;;;;;;;;;;22.00;91.60;;;;;;5038158;28;19924;-80
2022/06/02 12:37:44;;;;;;;;;;;22.20;90.90;;;;;;5070409;28;19921;-80
2022/06/02 12:40:16;;;;;;;;;;;22.30;90.70;;;;;;5057949;28;19920;-79
2022/06/02 12:43:05;;;;;;;;;;;22.20;90.30;;;;;;5033662;28;19921;-80
2022/06/02 12:45:43;;;;;;;;;;;22.10;87.50;;;;;;5064063;28;19978;-80
2022/06/02 12:48:14;;;;;;;;;;;22.00;89.70;;;;;;5051948;28;19972;-80
2022/06/02 12:50:55;;;;;;;;;;;22.00;89.20;;;;;;5069334;28;19924;-80
2022/06/02 12:53:26;;;;;;;;;;;22.00;89.50;;;;;;5060698;28;19927;-79
2022/06/02 12:56:01;;;;;;;;;;;22.00;87.90;;;;;;5063268;28;19926;-80
2022/06/02 12:58:48;;;;;;;;;;;22.00;88.20;;;;;;5069982;28;19959;-80
2022/06/02 13:01:16;;;;;;;;;;;22.10;88.20;;;;;;5064627;28;20167;-80
2022/06/02 13:03:48;;;;;;;;;;;22.40;86.90;;;;;;5078313;28;19963;-80
2022/06/02 13:06:21;;;;;;;;;;;22.80;85.20;;;;;;5070085;28;19927;-80
2022/06/02 13:09:02;;;;;;;;;;;22.90;84.10;;;;;;5054014;28;20071;-80
2022/06/02 13:11:46;;;;;;;;;;;23.00;83.20;;;;;;5072751;28;19931;-80
2022/06/02 13:14:23;;;;;;;;;;;22.90;84.40;;;;;;5069737;28;20328;-79
2022/06/02 13:17:04;;;;;;;;;;;22.90;83.80;;;;;;5057699;28;19920;-81
2022/06/02 13:19:48;;;;;;;;;;;22.90;82.00;;;;;;5066084;28;19924;-78
2022/06/02 13:22:26;;;;;;;;;;;22.90;81.90;;;;;;5063932;28;20015;-78
2022/06/02 13:24:58;;;;;;;;;;;23.00;81.20;;;;;;5053425;28;19965;-79
2022/06/02 13:27:27;;;;;;;;;;;23.00;80.50;;;;;;5065388;28;19927;-77
2022/06/02 13:29:58;;;;;;;;;;;23.00;81.50;;;;;;5075793;28;19920;-77
2022/06/02 13:32:42;;;;;;;;;;;23.20;80.00;;;;;;5051785;28;19927;-77
2022/06/02 13:35:14;;;;;;;;;;;23.40;77.70;;;;;;5085242;28;19927;-77
2022/06/02 13:38:03;;;;;;;;;;;23.50;78.30;;;;;;5061205;28;19950;-77
2022/06/02 13:40:34;;;;;;;;;;;23.80;79.50;;;;;;5035884;28;20070;-77
2022/06/02 13:43:18;;;;;;;;;;;24.20;77.80;;;;;;5071802;28;20491;-78
2022/06/02 13:45:50;;;;;;;;;;;24.40;76.90;;;;;;5072814;28;19921;-78
2022/06/02 13:48:15;;;;;;;;;;;24.70;74.80;;;;;;5055869;28;20267;-77
2022/06/02 13:50:59;;;;;;;;;;;24.70;74.00;;;;;;5042235;28;19935;-78
2022/06/02 13:57:30;;;;;;;;;;;24.90;71.60;;;;;;5037587;28;19924;-77
2022/06/02 13:59:16;;;;;;;;;;;25.00;69.70;;;;;;5072884;28;19920;-78
2022/06/02 14:01:48;;;;;;;;;;;25.10;64.80;;;;;;5048322;28;19927;-77
2022/06/02 14:04:45;;;;;;;;;;;25.10;69.20;;;;;;5060996;28;19927;-78
2022/06/02 14:07:20;;;;;;;;;;;25.30;67.60;;;;;;5015525;28;19928;-78
2022/06/02 14:10:06;;;;;;;;;;;25.40;66.40;;;;;;5084140;28;19966;-78
2022/06/02 14:12:41;;;;;;;;;;;25.40;64.70;;;;;;5050913;28;20403;-78
2022/06/02 14:15:12;;;;;;;;;;;25.60;65.40;;;;;;5069403;28;19920;-78
2022/06/02 14:17:54;;;;;;;;;;;25.80;64.90;;;;;;5051028;28;19921;-78
2022/06/02 14:20:32;;;;;;;;;;;25.90;59.10;;;;;;5084657;28;20015;-78
2022/06/02 14:22:57;;;;;;;;;;;26.10;60.00;;;;;;5049887;28;19928;-78
2022/06/02 14:25:23;;;;;;;;;;;26.10;58.80;;;;;;5072582;28;20784;-78
2022/06/02 14:28:10;;;;;;;;;;;26.00;59.20;;;;;;5072520;28;19929;-78
2022/06/02 14:30:43;;;;;;;;;;;25.80;59.50;;;;;;5055141;28;19920;-78
2022/06/02 14:33:08;;;;;;;;;;;25.80;59.20;;;;;;5069377;28;19920;-77
2022/06/02 14:35:34;;;;;;;;;;;25.80;57.30;;;;;;5104285;28;19927;-78
2022/06/02 14:38:18;;;;;;;;;;;25.80;58.40;;;;;;5055354;28;19920;-77
2022/06/02 14:40:50;;;;;;;;;;;25.90;58.30;;;;;;5068729;28;19930;-78
2022/06/02 14:43:15;;;;;;;;;;;26.00;57.70;;;;;;5071689;28;19943;-78
2022/06/02 14:45:44;;;;;;;;;;;26.10;58.60;;;;;;5055018;28;19920;-77
2022/06/02 14:48:28;;;;;;;;;;;26.30;56.40;;;;;;5103744;28;20026;-78
2022/06/02 14:50:57;;;;;;;;;;;26.60;54.90;;;;;;5087527;28;19972;-78
2022/06/02 14:53:28;;;;;;;;;;;26.90;55.30;;;;;;5087926;28;20003;-78
2022/06/02 14:56:06;;;;;;;;;;;27.10;55.80;;;;;;5072123;28;19936;-78
2022/06/02 14:58:51;;;;;;;;;;;27.20;53.50;;;;;;5072422;28;19921;-78
2022/06/02 15:01:27;;;;;;;;;;;27.30;53.40;;;;;;5042069;28;19920;-77
2022/06/02 15:04:05;;;;;;;;;;;27.40;53.70;;;;;;5078180;28;19921;-77
2022/06/02 15:06:47;;;;;;;;;;;27.40;53.00;;;;;;5074699;28;19924;-74
2022/06/02 15:09:27;;;;;;;;;;;27.10;53.20;;;;;;5071696;28;20332;-73
2022/06/02 15:12:02;;;;;;;;;;;27.20;53.60;;;;;;5053675;28;19920;-72
2022/06/02 15:14:34;;;;;;;;;;;27.20;52.30;;;;;;5060980;28;19967;-72
2022/06/02 15:17:25;;;;;;;;;;;27.20;52.50;;;;;;5062138;28;19924;-73
2022/06/02 15:19:57;;;;;;;;;;;27.10;52.80;;;;;;5085923;28;19927;-74
2022/06/02 15:22:38;;;;;;;;;;;26.90;54.30;;;;;;5059366;28;20330;-73